createdAt,value
2019-02-05T00:00:48.452Z,3.1
2019-02-05T00:01:49.121Z,3.1
2019-02-05T00:02:49.788Z,3.2
2019-02-05T00:03:50.453Z,3.1
2019-02-05T00:04:51.405Z,3.1
2019-02-05T00:05:52.071Z,3.1
2019-02-05T00:06:52.741Z,3.0
2019-02-05T00:07:53.407Z,3.1
2019-02-05T00:08:54.075Z,3.0
2019-02-05T00:09:54.742Z,3.0
2019-02-05T00:10:55.420Z,3.1
2019-02-05T00:11:56.216Z,3.1
2019-02-05T00:12:57.143Z,3.1
2019-02-05T00:13:57.810Z,3.0
2019-02-05T00:14:58.480Z,3.0
2019-02-05T00:15:59.148Z,2.9
2019-02-05T00:16:59.816Z,2.9
2019-02-05T00:18:00.483Z,3.0
2019-02-05T00:19:01.152Z,2.9
2019-02-05T00:20:01.819Z,3.0
2019-02-05T00:21:02.495Z,3.0
2019-02-05T00:22:03.160Z,3.0
2019-02-05T00:23:03.824Z,2.9
2019-02-05T00:24:04.494Z,2.9
2019-02-05T00:25:05.161Z,2.9
2019-02-05T00:26:06.675Z,2.9
2019-02-05T00:27:07.372Z,3.0
2019-02-05T00:28:08.036Z,3.0
2019-02-05T00:29:08.706Z,3.0
2019-02-05T00:30:09.417Z,3.0
2019-02-05T00:31:10.082Z,3.1
2019-02-05T00:32:10.750Z,3.0
2019-02-05T00:33:11.417Z,3.0
2019-02-05T00:34:12.086Z,3.0
2019-02-05T00:35:12.755Z,3.1
2019-02-05T00:36:13.472Z,3.1
2019-02-05T00:37:14.141Z,3.0
2019-02-05T00:38:14.810Z,3.1
2019-02-05T00:39:15.477Z,3.1
2019-02-05T00:40:16.146Z,3.2
2019-02-05T00:41:16.814Z,3.1
2019-02-05T00:42:17.482Z,3.2
2019-02-05T00:43:18.149Z,3.2
2019-02-05T00:44:18.889Z,3.3
2019-02-05T00:45:19.528Z,3.3
2019-02-05T00:46:20.194Z,3.3
2019-02-05T00:47:21.075Z,3.3
2019-02-05T00:48:21.744Z,3.3
2019-02-05T00:49:22.411Z,3.4
2019-02-05T00:50:23.077Z,3.4
2019-02-05T00:51:23.743Z,3.4
2019-02-05T00:52:24.413Z,3.5
2019-02-05T00:53:25.080Z,3.4
2019-02-05T00:54:25.752Z,3.5
2019-02-05T00:55:26.561Z,3.4
2019-02-05T00:56:27.226Z,3.5
2019-02-05T00:57:27.895Z,3.6
2019-02-05T00:58:28.562Z,3.5
2019-02-05T00:59:29.230Z,3.5
2019-02-05T01:00:29.898Z,3.5
2019-02-05T01:01:30.566Z,3.5
2019-02-05T01:02:31.236Z,3.4
2019-02-05T01:03:31.902Z,3.5
2019-02-05T01:04:32.880Z,3.5
2019-02-05T01:05:33.548Z,3.4
2019-02-05T01:06:34.219Z,3.5
2019-02-05T01:07:34.885Z,3.4
2019-02-05T01:08:35.554Z,3.4
2019-02-05T01:09:36.222Z,3.3
2019-02-05T01:10:36.893Z,3.3
2019-02-05T01:11:37.558Z,3.3
2019-02-05T01:12:38.410Z,3.3
2019-02-05T01:13:39.076Z,3.2
2019-02-05T01:14:39.746Z,3.2
2019-02-05T01:15:40.413Z,3.2
2019-02-05T01:16:41.081Z,3.1
2019-02-05T01:17:41.749Z,3.1
2019-02-05T01:18:42.418Z,3.1
2019-02-05T01:19:43.085Z,3.0
2019-02-05T01:20:43.756Z,3.1
2019-02-05T01:21:44.470Z,3.0
2019-02-05T01:22:45.180Z,3.1
2019-02-05T01:23:45.849Z,3.0
2019-02-05T01:24:46.516Z,3.0
2019-02-05T01:25:47.195Z,3.0
2019-02-05T01:26:47.852Z,3.0
2019-02-05T01:27:48.519Z,2.9
2019-02-05T01:28:49.187Z,2.9
2019-02-05T01:29:50.024Z,2.8
2019-02-05T01:30:50.693Z,2.8
2019-02-05T01:31:51.356Z,2.8
2019-02-05T01:32:52.022Z,2.8
2019-02-05T01:33:52.740Z,2.8
2019-02-05T01:34:53.408Z,2.7
2019-02-05T01:35:54.074Z,2.8
2019-02-05T01:36:54.741Z,2.6
2019-02-05T01:37:55.409Z,2.7
2019-02-05T01:38:56.501Z,2.5
2019-02-05T01:39:57.168Z,2.7
2019-02-05T01:40:57.837Z,2.6
2019-02-05T01:41:58.504Z,2.5
2019-02-05T01:42:59.172Z,2.6
2019-02-05T01:43:59.838Z,2.6
2019-02-05T01:45:00.506Z,2.7
2019-02-05T01:46:01.173Z,2.6
2019-02-05T01:47:02.005Z,2.6
2019-02-05T01:48:02.718Z,2.6
2019-02-05T01:49:03.387Z,2.6
2019-02-05T01:50:04.055Z,2.6
2019-02-05T01:51:04.723Z,2.6
2019-02-05T01:52:05.391Z,2.6
2019-02-05T01:53:06.061Z,2.6
2019-02-05T01:54:06.727Z,2.6
2019-02-05T01:55:07.393Z,2.5
2019-02-05T01:56:08.292Z,2.6
2019-02-05T01:57:08.960Z,2.6
2019-02-05T01:58:09.677Z,2.6
2019-02-05T01:59:10.343Z,2.6
2019-02-05T02:00:11.011Z,2.6
2019-02-05T02:01:11.678Z,2.6
2019-02-05T02:02:12.356Z,2.6
2019-02-05T02:03:13.015Z,2.7
2019-02-05T02:04:13.946Z,2.7
2019-02-05T02:05:14.613Z,2.5
2019-02-05T02:06:15.280Z,2.5
2019-02-05T02:07:15.947Z,2.6
2019-02-05T02:08:16.616Z,2.7
2019-02-05T02:09:17.283Z,2.7
2019-02-05T02:10:17.953Z,2.6
2019-02-05T02:11:18.620Z,2.7
2019-02-05T02:12:19.406Z,2.8
2019-02-05T02:13:20.120Z,2.8
2019-02-05T02:14:20.790Z,2.7
2019-02-05T02:15:21.453Z,2.8
2019-02-05T02:16:22.124Z,2.8
2019-02-05T02:17:22.790Z,2.7
2019-02-05T02:18:23.461Z,2.7
2019-02-05T02:19:24.125Z,2.7
2019-02-05T02:20:24.794Z,2.8
2019-02-05T02:21:25.731Z,2.7
2019-02-05T02:22:26.402Z,2.7
2019-02-05T02:23:27.066Z,2.8
2019-02-05T02:24:27.735Z,2.8
2019-02-05T02:25:28.403Z,2.7
2019-02-05T02:26:29.072Z,2.7
2019-02-05T02:27:29.737Z,2.7
2019-02-05T02:28:30.403Z,2.8
2019-02-05T02:29:31.429Z,2.8
2019-02-05T02:30:32.095Z,2.8
2019-02-05T02:31:32.762Z,2.7
2019-02-05T02:32:33.435Z,2.8
2019-02-05T02:33:34.102Z,2.7
2019-02-05T02:34:34.771Z,2.7
2019-02-05T02:35:35.445Z,2.8
2019-02-05T02:36:36.151Z,2.7
2019-02-05T02:37:36.861Z,2.7
2019-02-05T02:38:37.576Z,2.6
2019-02-05T02:39:38.250Z,2.6
2019-02-05T02:40:38.911Z,2.6
2019-02-05T02:41:39.578Z,2.8
2019-02-05T02:42:40.247Z,2.7
2019-02-05T02:43:40.912Z,2.7
2019-02-05T02:44:41.589Z,2.6
2019-02-05T02:45:42.249Z,2.6
2019-02-05T02:46:43.234Z,2.7
2019-02-05T02:47:43.903Z,2.6
2019-02-05T02:48:44.572Z,2.6
2019-02-05T02:49:45.288Z,2.6
2019-02-05T02:50:45.954Z,2.6
2019-02-05T02:51:46.625Z,2.6
2019-02-05T02:52:47.292Z,2.7
2019-02-05T02:53:47.959Z,2.6
2019-02-05T02:54:48.807Z,2.6
2019-02-05T02:55:49.474Z,2.7
2019-02-05T02:56:50.142Z,2.6
2019-02-05T02:57:50.808Z,2.6
2019-02-05T02:58:51.476Z,2.6
2019-02-05T02:59:52.142Z,2.5
2019-02-05T03:00:52.810Z,2.6
2019-02-05T03:01:53.527Z,2.6
2019-02-05T03:02:54.469Z,2.7
2019-02-05T03:03:55.126Z,2.6
2019-02-05T03:04:55.795Z,2.6
2019-02-05T03:05:56.462Z,2.6
2019-02-05T03:06:57.132Z,2.6
2019-02-05T03:07:57.797Z,2.6
2019-02-05T03:08:58.466Z,2.6
2019-02-05T03:09:59.198Z,2.6
2019-02-05T03:11:00.114Z,2.6
2019-02-05T03:12:00.782Z,2.8
2019-02-05T03:13:01.449Z,2.7
2019-02-05T03:14:02.117Z,2.6
2019-02-05T03:15:02.785Z,2.6
2019-02-05T03:16:03.454Z,2.6
2019-02-05T03:17:04.169Z,2.6
2019-02-05T03:18:04.861Z,2.5
2019-02-05T03:19:05.947Z,2.5
2019-02-05T03:20:06.618Z,2.4
2019-02-05T03:21:07.325Z,2.5
2019-02-05T03:22:08.039Z,2.5
2019-02-05T03:23:08.704Z,2.5
2019-02-05T03:24:09.375Z,2.4
2019-02-05T03:25:10.043Z,2.4
2019-02-05T03:26:10.710Z,2.4
2019-02-05T03:27:17.901Z,2.4
2019-02-05T03:28:13.036Z,2.4
2019-02-05T03:29:13.703Z,2.3
2019-02-05T03:30:14.373Z,2.4
2019-02-05T03:31:15.040Z,2.4
2019-02-05T03:32:15.709Z,2.4
2019-02-05T03:33:16.375Z,2.3
2019-02-05T03:34:17.044Z,2.4
2019-02-05T03:35:17.758Z,2.4
2019-02-05T03:36:18.418Z,2.5
2019-02-05T03:37:19.085Z,2.6
2019-02-05T03:38:19.757Z,2.6
2019-02-05T03:39:20.422Z,2.6
2019-02-05T03:40:21.089Z,2.7
2019-02-05T03:41:21.762Z,2.7
2019-02-05T03:42:22.475Z,2.6
2019-02-05T03:43:23.140Z,2.6
2019-02-05T03:44:23.807Z,2.7
2019-02-05T03:45:24.481Z,2.7
2019-02-05T03:46:25.151Z,2.8
2019-02-05T03:47:25.812Z,2.7
2019-02-05T03:48:26.489Z,2.8
2019-02-05T03:49:27.148Z,2.9
2019-02-05T03:50:28.001Z,2.9
2019-02-05T03:51:28.671Z,2.9
2019-02-05T03:52:29.337Z,3.0
2019-02-05T03:53:30.049Z,3.0
2019-02-05T03:54:30.719Z,3.0
2019-02-05T03:55:31.434Z,2.9
2019-02-05T03:56:32.152Z,2.9
2019-02-05T03:57:32.823Z,2.9
2019-02-05T03:58:33.540Z,2.9
2019-02-05T03:59:34.204Z,2.9
2019-02-05T04:00:34.874Z,2.9
2019-02-05T04:01:35.541Z,2.9
2019-02-05T04:02:36.211Z,2.9
2019-02-05T04:03:36.920Z,2.9
2019-02-05T04:04:37.571Z,2.9
2019-02-05T04:05:38.241Z,2.9
2019-02-05T04:06:38.907Z,2.9
2019-02-05T04:07:39.795Z,3.0
2019-02-05T04:08:40.472Z,2.9
2019-02-05T04:09:41.183Z,2.9
2019-02-05T04:10:41.850Z,3.0
2019-02-05T04:11:42.519Z,2.9
2019-02-05T04:12:43.187Z,2.9
2019-02-05T04:13:43.854Z,2.9
2019-02-05T04:14:44.522Z,2.9
2019-02-05T04:15:45.423Z,3.0
2019-02-05T04:16:46.091Z,3.0
2019-02-05T04:17:46.759Z,3.0
2019-02-05T04:18:47.436Z,3.0
2019-02-05T04:19:48.096Z,3.1
2019-02-05T04:20:48.765Z,3.1
2019-02-05T04:21:49.431Z,3.0
2019-02-05T04:22:50.101Z,3.0
2019-02-05T04:23:50.768Z,3.1
2019-02-05T04:24:51.437Z,3.2
2019-02-05T04:25:52.105Z,3.1
2019-02-05T04:26:52.771Z,3.1
2019-02-05T04:27:53.440Z,3.1
2019-02-05T04:28:54.108Z,3.1
2019-02-05T04:29:54.775Z,3.2
2019-02-05T04:30:55.441Z,3.2
2019-02-05T04:31:56.110Z,3.2
2019-02-05T04:32:57.078Z,3.2
2019-02-05T04:33:57.740Z,3.2
2019-02-05T04:34:58.409Z,3.2
2019-02-05T04:35:59.075Z,3.1
2019-02-05T04:36:59.746Z,3.2
2019-02-05T04:38:00.412Z,3.1
2019-02-05T04:39:01.081Z,3.0
2019-02-05T04:40:01.752Z,3.1
2019-02-05T04:41:02.741Z,3.0
2019-02-05T04:42:03.409Z,3.1
2019-02-05T04:43:04.080Z,3.0
2019-02-05T04:44:04.747Z,3.1
2019-02-05T04:45:05.464Z,3.1
2019-02-05T04:46:06.130Z,3.0
2019-02-05T04:47:06.847Z,3.0
2019-02-05T04:48:07.517Z,3.0
2019-02-05T04:49:08.186Z,3.0
2019-02-05T04:50:08.852Z,2.9
2019-02-05T04:51:09.522Z,2.9
2019-02-05T04:52:10.236Z,2.9
2019-02-05T04:53:10.907Z,2.9
2019-02-05T04:54:11.571Z,3.0
2019-02-05T04:55:12.239Z,3.0
2019-02-05T04:56:12.906Z,3.0
2019-02-05T04:57:13.576Z,3.1
2019-02-05T04:58:14.568Z,3.0
2019-02-05T04:59:15.319Z,3.0
2019-02-05T05:00:15.993Z,3.0
2019-02-05T05:01:16.661Z,3.0
2019-02-05T05:02:17.327Z,3.1
2019-02-05T05:03:17.994Z,3.1
2019-02-05T05:04:18.663Z,3.1
2019-02-05T05:05:19.332Z,3.1
2019-02-05T05:06:20.236Z,3.1
2019-02-05T05:07:20.952Z,3.2
2019-02-05T05:08:21.619Z,3.1
2019-02-05T05:09:22.289Z,3.1
2019-02-05T05:10:22.957Z,3.1
2019-02-05T05:11:23.631Z,3.1
2019-02-05T05:12:24.295Z,3.1
2019-02-05T05:13:24.962Z,3.1
2019-02-05T05:14:25.790Z,3.1
2019-02-05T05:15:26.455Z,3.1
2019-02-05T05:16:27.123Z,3.1
2019-02-05T05:17:27.813Z,3.1
2019-02-05T05:18:28.458Z,3.1
2019-02-05T05:19:29.127Z,3.1
2019-02-05T05:20:29.794Z,3.2
2019-02-05T05:21:30.462Z,3.3
2019-02-05T05:22:31.229Z,3.2
2019-02-05T05:23:31.897Z,3.3
2019-02-05T05:24:32.567Z,3.2
2019-02-05T05:25:33.234Z,3.2
2019-02-05T05:26:33.903Z,3.2
2019-02-05T05:27:34.620Z,3.2
2019-02-05T05:28:35.289Z,3.2
2019-02-05T05:29:35.955Z,3.1
2019-02-05T05:30:36.826Z,3.1
2019-02-05T05:31:37.609Z,3.1
2019-02-05T05:32:38.308Z,3.0
2019-02-05T05:33:38.985Z,3.1
2019-02-05T05:34:39.644Z,3.1
2019-02-05T05:35:44.355Z,3.1
2019-02-05T05:36:41.973Z,3.0
2019-02-05T05:37:42.640Z,3.0
2019-02-05T05:38:43.500Z,3.1
2019-02-05T05:39:44.220Z,3.0
2019-02-05T05:40:44.852Z,3.0
2019-02-05T05:41:45.519Z,3.0
2019-02-05T05:42:46.188Z,3.1
2019-02-05T05:43:46.855Z,3.2
2019-02-05T05:44:47.525Z,3.1
2019-02-05T05:45:48.192Z,3.1
2019-02-05T05:46:48.858Z,3.1
2019-02-05T05:47:49.525Z,3.2
2019-02-05T05:48:50.197Z,3.3
2019-02-05T05:49:50.913Z,3.2
2019-02-05T05:50:51.579Z,3.3
2019-02-05T05:51:52.277Z,3.3
2019-02-05T05:52:52.925Z,3.3
2019-02-05T05:53:53.592Z,3.4
2019-02-05T05:54:54.263Z,3.4
2019-02-05T05:55:54.930Z,3.4
2019-02-05T05:56:55.598Z,3.4
2019-02-05T05:57:56.266Z,3.4
2019-02-05T05:58:56.935Z,3.4
2019-02-05T05:59:57.605Z,3.4
2019-02-05T06:00:58.271Z,3.6
2019-02-05T06:01:58.940Z,3.5
2019-02-05T06:02:59.658Z,3.5
2019-02-05T06:04:00.374Z,3.5
2019-02-05T06:05:01.045Z,3.6
2019-02-05T06:06:01.712Z,3.5
2019-02-05T06:07:02.382Z,3.6
2019-02-05T06:08:03.047Z,3.4
2019-02-05T06:09:03.764Z,3.5
2019-02-05T06:10:07.050Z,3.5
2019-02-05T06:11:06.095Z,3.6
2019-02-05T06:12:06.767Z,3.5
2019-02-05T06:13:07.434Z,3.5
2019-02-05T06:14:08.099Z,3.5
2019-02-05T06:15:08.766Z,3.5
2019-02-05T06:16:09.435Z,3.4
2019-02-05T06:17:10.101Z,3.5
2019-02-05T06:18:10.771Z,3.5
2019-02-05T06:19:11.446Z,3.6
2019-02-05T06:20:12.477Z,3.5
2019-02-05T06:21:13.712Z,3.5
2019-02-05T06:22:14.502Z,3.5
2019-02-05T06:23:15.239Z,3.6
2019-02-05T06:24:15.953Z,3.5
2019-02-05T06:25:16.796Z,3.5
2019-02-05T06:26:20.128Z,3.6
2019-02-05T06:27:18.192Z,3.7
2019-02-05T06:28:19.133Z,3.6
2019-02-05T06:29:19.800Z,3.7
2019-02-05T06:30:20.518Z,3.6
2019-02-05T06:31:21.187Z,3.7
2019-02-05T06:32:21.854Z,3.8
2019-02-05T06:33:23.607Z,3.7
2019-02-05T06:34:24.185Z,3.8
2019-02-05T06:35:24.875Z,3.6
2019-02-05T06:36:25.721Z,3.6
2019-02-05T06:37:26.385Z,3.5
2019-02-05T06:38:27.054Z,3.6
2019-02-05T06:39:27.732Z,3.6
2019-02-05T06:40:28.394Z,3.6
2019-02-05T06:41:29.061Z,3.7
2019-02-05T06:42:29.730Z,3.6
2019-02-05T06:43:30.399Z,3.7
2019-02-05T06:44:31.310Z,3.6
2019-02-05T06:45:31.983Z,3.6
2019-02-05T06:46:32.649Z,3.6
2019-02-05T06:47:33.318Z,3.6
2019-02-05T06:48:33.987Z,3.6
2019-02-05T06:49:34.656Z,3.6
2019-02-05T06:50:35.330Z,3.6
2019-02-05T06:51:35.995Z,3.7
2019-02-05T06:52:36.705Z,3.6
2019-02-05T06:53:37.376Z,3.6
2019-02-05T06:54:38.048Z,3.7
2019-02-05T06:55:38.717Z,3.7
2019-02-05T06:56:42.232Z,3.7
2019-02-05T06:57:41.049Z,3.8
2019-02-05T06:58:46.528Z,3.6
2019-02-05T06:59:43.381Z,3.6
2019-02-05T07:00:44.051Z,3.7
2019-02-05T07:01:44.854Z,3.7
2019-02-05T07:02:45.525Z,3.7
2019-02-05T07:03:46.199Z,3.8
2019-02-05T07:04:46.917Z,3.8
2019-02-05T07:05:47.667Z,3.8
2019-02-05T07:06:48.314Z,3.8
2019-02-05T07:07:48.982Z,3.8
2019-02-05T07:08:49.653Z,3.8
2019-02-05T07:09:50.546Z,3.7
2019-02-05T07:10:51.220Z,3.8
2019-02-05T07:11:51.888Z,3.8
2019-02-05T07:12:52.562Z,3.7
2019-02-05T07:13:53.228Z,3.7
2019-02-05T07:14:53.900Z,3.8
2019-02-05T07:15:54.582Z,3.8
2019-02-05T07:16:55.296Z,3.8
2019-02-05T07:17:56.282Z,3.9
2019-02-05T07:18:56.965Z,3.8
2019-02-05T07:19:57.672Z,3.9
2019-02-05T07:20:58.345Z,3.9
2019-02-05T07:21:59.063Z,4.0
2019-02-05T07:22:59.729Z,4.0
2019-02-05T07:24:00.400Z,4.0
2019-02-05T07:25:01.121Z,3.9
2019-02-05T07:26:02.094Z,4.0
2019-02-05T07:27:02.767Z,4.0
2019-02-05T07:28:03.436Z,4.0
2019-02-05T07:29:04.108Z,3.9
2019-02-05T07:30:04.779Z,4.0
2019-02-05T07:31:05.453Z,3.9
2019-02-05T07:32:06.125Z,4.0
2019-02-05T07:33:06.796Z,4.1
2019-02-05T07:34:07.747Z,4.0
2019-02-05T07:35:08.549Z,3.9
2019-02-05T07:36:09.216Z,3.9
2019-02-05T07:37:09.997Z,4.0
2019-02-05T07:38:10.651Z,4.0
2019-02-05T07:39:11.327Z,3.9
2019-02-05T07:40:12.052Z,4.0
2019-02-05T07:41:13.044Z,4.0
2019-02-05T07:42:13.715Z,4.0
2019-02-05T07:43:14.387Z,4.0
2019-02-05T07:44:15.059Z,4.0
2019-02-05T07:45:15.733Z,4.1
2019-02-05T07:46:16.404Z,4.1
2019-02-05T07:47:17.075Z,4.0
2019-02-05T07:48:17.747Z,4.1
2019-02-05T07:49:18.732Z,4.1
2019-02-05T07:50:19.413Z,4.1
2019-02-05T07:51:20.119Z,4.1
2019-02-05T07:52:20.789Z,4.1
2019-02-05T07:53:21.462Z,4.1
2019-02-05T07:54:22.136Z,4.2
2019-02-05T07:55:22.808Z,4.2
2019-02-05T07:56:23.479Z,4.2
2019-02-05T07:57:24.426Z,4.2
2019-02-05T07:58:25.098Z,4.2
2019-02-05T07:59:25.772Z,4.2
2019-02-05T08:00:26.456Z,4.1
2019-02-05T08:01:27.119Z,4.1
2019-02-05T08:02:27.793Z,4.3
2019-02-05T08:03:28.465Z,4.2
2019-02-05T08:04:29.140Z,4.3
2019-02-05T08:05:29.886Z,4.2
2019-02-05T08:06:30.561Z,4.2
2019-02-05T08:07:31.234Z,4.2
2019-02-05T08:08:31.905Z,4.2
2019-02-05T08:09:32.578Z,4.3
2019-02-05T08:10:33.252Z,4.2
2019-02-05T08:11:33.927Z,4.2
2019-02-05T08:12:34.733Z,4.3
2019-02-05T08:13:35.404Z,4.2
2019-02-05T08:14:36.077Z,4.2
2019-02-05T08:15:36.865Z,4.2
2019-02-05T08:16:37.522Z,4.2
2019-02-05T08:17:38.196Z,4.3
2019-02-05T08:18:38.918Z,4.2
2019-02-05T08:19:39.723Z,4.2
2019-02-05T08:20:40.397Z,4.3
2019-02-05T08:21:41.069Z,4.3
2019-02-05T08:22:41.744Z,4.4
2019-02-05T08:23:42.466Z,4.4
2019-02-05T08:24:43.141Z,4.4
2019-02-05T08:25:43.813Z,4.4
2019-02-05T08:26:44.485Z,4.4
2019-02-05T08:27:45.367Z,4.4
2019-02-05T08:28:46.038Z,4.3
2019-02-05T08:29:46.713Z,4.3
2019-02-05T08:30:47.385Z,4.2
2019-02-05T08:31:48.108Z,4.3
2019-02-05T08:32:48.783Z,4.3
2019-02-05T08:33:49.457Z,4.4
2019-02-05T08:34:50.137Z,4.3
2019-02-05T08:35:50.843Z,4.4
2019-02-05T08:36:51.570Z,4.4
2019-02-05T08:37:52.242Z,4.4
2019-02-05T08:38:52.918Z,4.4
2019-02-05T08:39:53.587Z,4.4
2019-02-05T08:40:54.261Z,4.4
2019-02-05T08:41:54.936Z,4.4
2019-02-05T08:42:55.607Z,4.5
2019-02-05T08:43:56.486Z,4.4
2019-02-05T08:44:57.159Z,4.4
2019-02-05T08:45:57.833Z,4.3
2019-02-05T08:46:58.507Z,4.3
2019-02-05T08:47:59.182Z,4.3
2019-02-05T08:48:59.857Z,4.4
2019-02-05T08:50:00.527Z,4.4
2019-02-05T08:51:01.201Z,4.4
2019-02-05T08:52:02.179Z,4.4
2019-02-05T08:53:02.849Z,4.4
2019-02-05T08:54:03.521Z,4.5
2019-02-05T08:55:04.194Z,4.5
2019-02-05T08:56:04.868Z,4.5
2019-02-05T08:57:05.542Z,4.5
2019-02-05T08:58:06.214Z,4.6
2019-02-05T08:59:06.887Z,4.5
2019-02-05T09:00:07.855Z,4.5
2019-02-05T09:01:08.528Z,4.5
2019-02-05T09:02:09.201Z,4.8
2019-02-05T09:03:09.877Z,4.8
2019-02-05T09:04:10.600Z,4.8
2019-02-05T09:05:11.275Z,4.8
2019-02-05T09:06:11.948Z,4.7
2019-02-05T09:07:12.622Z,4.9
2019-02-05T09:08:13.589Z,4.9
2019-02-05T09:09:14.266Z,5.0
2019-02-05T09:10:14.940Z,5.0
2019-02-05T09:11:15.652Z,5.1
2019-02-05T09:12:18.018Z,5.1
2019-02-05T09:13:17.995Z,5.2
2019-02-05T09:14:18.671Z,5.3
2019-02-05T09:15:29.090Z,5.3
2019-02-05T09:16:21.010Z,5.3
2019-02-05T09:17:24.292Z,5.4
2019-02-05T09:18:23.354Z,5.4
2019-02-05T09:19:24.031Z,5.4
2019-02-05T09:20:24.706Z,5.2
2019-02-05T09:21:25.382Z,5.2
2019-02-05T09:22:26.055Z,5.2
2019-02-05T09:23:26.730Z,5.2
2019-02-05T09:24:27.666Z,5.2
2019-02-05T09:25:28.341Z,5.2
2019-02-05T09:26:29.018Z,5.2
2019-02-05T09:27:29.693Z,5.2
2019-02-05T09:28:30.367Z,5.2
2019-02-05T09:29:33.380Z,5.2
2019-02-05T09:30:31.759Z,5.1
2019-02-05T09:31:32.435Z,5.1
2019-02-05T09:32:35.107Z,5.2
2019-02-05T09:33:35.080Z,5.1
2019-02-05T09:34:35.756Z,5.1
2019-02-05T09:35:36.431Z,5.0
2019-02-05T09:36:37.102Z,5.0
2019-02-05T09:37:37.776Z,4.9
2019-02-05T09:38:38.450Z,4.9
2019-02-05T09:39:39.124Z,4.9
2019-02-05T09:40:40.005Z,4.9
2019-02-05T09:41:40.680Z,4.9
2019-02-05T09:42:41.353Z,4.9
2019-02-05T09:43:42.027Z,4.9
2019-02-05T09:44:42.702Z,4.9
2019-02-05T09:45:43.377Z,4.9
2019-02-05T09:46:44.049Z,4.9
2019-02-05T09:47:44.729Z,4.9
2019-02-05T09:48:45.750Z,5.0
2019-02-05T09:49:46.421Z,4.9
2019-02-05T09:50:47.095Z,4.9
2019-02-05T09:51:47.789Z,5.0
2019-02-05T09:52:48.489Z,5.0
2019-02-05T09:53:49.162Z,4.9
2019-02-05T09:54:49.837Z,4.9
2019-02-05T09:55:50.514Z,5.0
2019-02-05T09:56:51.521Z,5.0
2019-02-05T09:57:52.244Z,4.9
2019-02-05T09:58:52.966Z,5.0
2019-02-05T09:59:53.642Z,5.0
2019-02-05T10:00:54.316Z,5.0
2019-02-05T10:01:54.991Z,5.0
2019-02-05T10:02:55.664Z,4.9
2019-02-05T10:03:56.337Z,4.9
2019-02-05T10:04:57.285Z,4.8
2019-02-05T10:05:57.958Z,4.9
2019-02-05T10:06:58.633Z,4.9
2019-02-05T10:07:59.308Z,4.9
2019-02-05T10:08:59.982Z,4.9
2019-02-05T10:10:00.659Z,5.0
2019-02-05T10:11:01.330Z,4.9
2019-02-05T10:12:02.005Z,5.0
2019-02-05T10:13:02.967Z,5.0
2019-02-05T10:14:03.678Z,5.0
2019-02-05T10:15:04.355Z,5.0
2019-02-05T10:16:05.031Z,5.0
2019-02-05T10:17:05.701Z,5.1
2019-02-05T10:18:06.377Z,5.1
2019-02-05T10:19:07.051Z,5.1
2019-02-05T10:20:07.724Z,5.1
2019-02-05T10:21:08.613Z,5.1
2019-02-05T10:22:09.353Z,5.1
2019-02-05T10:23:10.025Z,5.1
2019-02-05T10:24:10.699Z,5.1
2019-02-05T10:25:11.374Z,5.1
2019-02-05T10:26:12.116Z,5.2
2019-02-05T10:27:12.765Z,5.2
2019-02-05T10:28:13.439Z,5.1
2019-02-05T10:29:14.366Z,5.1
2019-02-05T10:30:15.044Z,5.2
2019-02-05T10:31:15.767Z,5.2
2019-02-05T10:32:16.439Z,5.2
2019-02-05T10:33:17.113Z,5.2
2019-02-05T10:34:17.786Z,5.1
2019-02-05T10:35:18.461Z,5.2
2019-02-05T10:36:19.134Z,5.3
2019-02-05T10:37:20.032Z,5.3
2019-02-05T10:38:20.706Z,5.3
2019-02-05T10:39:21.380Z,5.3
2019-02-05T10:40:22.053Z,5.3
2019-02-05T10:41:22.728Z,5.3
2019-02-05T10:42:23.403Z,5.3
2019-02-05T10:43:24.074Z,5.3
2019-02-05T10:44:24.750Z,5.2
2019-02-05T10:45:25.638Z,5.3
2019-02-05T10:46:26.312Z,5.4
2019-02-05T10:47:26.987Z,5.3
2019-02-05T10:48:27.664Z,5.4
2019-02-05T10:49:28.337Z,5.4
2019-02-05T10:50:29.011Z,5.4
2019-02-05T10:51:29.685Z,5.5
2019-02-05T10:52:30.358Z,5.5
2019-02-05T10:53:31.421Z,5.5
2019-02-05T10:54:32.095Z,5.4
2019-02-05T10:55:32.770Z,5.6
2019-02-05T10:56:33.443Z,5.6
2019-02-05T10:57:34.117Z,5.7
2019-02-05T10:58:34.791Z,5.7
2019-02-05T10:59:35.465Z,5.7
2019-02-05T11:00:36.138Z,5.7
2019-02-05T11:01:37.086Z,5.8
2019-02-05T11:02:37.763Z,5.8
2019-02-05T11:03:38.435Z,5.8
2019-02-05T11:04:39.109Z,5.7
2019-02-05T11:05:39.783Z,5.9
2019-02-05T11:06:40.465Z,5.9
2019-02-05T11:07:41.131Z,5.9
2019-02-05T11:08:41.808Z,5.9
2019-02-05T11:09:42.746Z,6.0
2019-02-05T11:10:43.421Z,5.8
2019-02-05T11:11:44.096Z,6.0
2019-02-05T11:12:44.771Z,6.0
2019-02-05T11:13:45.444Z,6.1
2019-02-05T11:14:46.119Z,6.1
2019-02-05T11:15:46.795Z,6.0
2019-02-05T11:16:47.470Z,6.1
2019-02-05T11:17:48.401Z,6.1
2019-02-05T11:18:49.077Z,6.1
2019-02-05T11:19:49.752Z,6.1
2019-02-05T11:20:50.428Z,6.2
2019-02-05T11:21:51.100Z,6.2
2019-02-05T11:22:51.777Z,6.2
2019-02-05T11:23:52.501Z,6.2
2019-02-05T11:24:53.175Z,6.1
2019-02-05T11:25:54.026Z,6.2
2019-02-05T11:26:54.735Z,6.2
2019-02-05T11:27:55.412Z,6.2
2019-02-05T11:28:56.136Z,6.2
2019-02-05T11:29:56.810Z,6.1
2019-02-05T11:30:57.484Z,6.2
2019-02-05T11:31:58.160Z,6.2
2019-02-05T11:32:58.834Z,6.2
2019-02-05T11:33:59.732Z,6.2
2019-02-05T11:35:00.410Z,6.2
2019-02-05T11:36:01.082Z,6.3
2019-02-05T11:37:01.757Z,6.3
2019-02-05T11:38:02.431Z,6.4
2019-02-05T11:39:03.154Z,6.4
2019-02-05T11:40:03.879Z,6.4
2019-02-05T11:41:04.556Z,6.5
2019-02-05T11:42:05.229Z,6.5
2019-02-05T11:43:05.906Z,6.4
2019-02-05T11:44:06.579Z,6.5
2019-02-05T11:45:07.254Z,6.5
2019-02-05T11:46:07.931Z,6.4
2019-02-05T11:47:08.604Z,6.4
2019-02-05T11:48:09.287Z,6.5
2019-02-05T11:49:10.072Z,6.6
2019-02-05T11:50:10.744Z,6.5
2019-02-05T11:51:11.419Z,6.5
2019-02-05T11:52:12.097Z,6.6
2019-02-05T11:53:12.775Z,6.5
2019-02-05T11:54:13.448Z,6.5
2019-02-05T11:55:14.124Z,6.6
2019-02-05T11:56:14.800Z,6.6
2019-02-05T11:57:15.612Z,6.6
2019-02-05T11:58:16.287Z,6.7
2019-02-05T11:59:16.965Z,6.7
2019-02-05T12:00:17.642Z,6.8
2019-02-05T12:01:18.317Z,6.9
2019-02-05T12:02:19.016Z,6.8
2019-02-05T12:03:19.666Z,6.8
2019-02-05T12:04:20.343Z,6.7
2019-02-05T12:05:21.179Z,6.7
2019-02-05T12:06:21.852Z,6.8
2019-02-05T12:07:22.527Z,6.8
2019-02-05T12:08:23.205Z,6.8
2019-02-05T12:09:23.882Z,6.8
2019-02-05T12:10:24.559Z,6.7
2019-02-05T12:11:25.237Z,6.6
2019-02-05T12:12:25.912Z,6.8
2019-02-05T12:13:26.869Z,6.7
2019-02-05T12:14:27.545Z,6.8
2019-02-05T12:15:28.221Z,6.7
2019-02-05T12:16:28.899Z,6.8
2019-02-05T12:17:29.626Z,6.7
2019-02-05T12:18:30.306Z,6.8
2019-02-05T12:19:30.989Z,6.7
2019-02-05T12:20:31.704Z,6.7
2019-02-05T12:21:32.732Z,6.7
2019-02-05T12:22:33.402Z,6.7
2019-02-05T12:23:34.076Z,6.6
2019-02-05T12:24:34.752Z,6.4
2019-02-05T12:25:35.428Z,6.6
2019-02-05T12:26:36.097Z,6.5
2019-02-05T12:27:36.775Z,6.5
2019-02-05T12:28:37.450Z,6.3
2019-02-05T12:29:38.126Z,6.4
2019-02-05T12:30:45.015Z,6.3
2019-02-05T12:31:39.532Z,6.3
2019-02-05T12:32:40.208Z,6.3
2019-02-05T12:33:40.885Z,6.3
2019-02-05T12:34:41.559Z,6.3
2019-02-05T12:35:42.236Z,6.3
2019-02-05T12:36:42.912Z,6.4
2019-02-05T12:37:43.818Z,6.5
2019-02-05T12:38:44.511Z,6.5
2019-02-05T12:39:45.218Z,6.5
2019-02-05T12:40:45.893Z,6.5
2019-02-05T12:41:46.570Z,6.6
2019-02-05T12:42:47.244Z,6.4
2019-02-05T12:43:47.918Z,6.5
2019-02-05T12:44:48.595Z,6.5
2019-02-05T12:45:49.524Z,6.5
2019-02-05T12:46:50.201Z,6.5
2019-02-05T12:47:50.925Z,6.5
2019-02-05T12:48:51.601Z,6.6
2019-02-05T12:49:52.279Z,6.5
2019-02-05T12:50:52.954Z,6.6
2019-02-05T12:51:53.628Z,6.7
2019-02-05T12:52:54.303Z,6.8
2019-02-05T12:53:55.218Z,6.7
2019-02-05T12:54:55.893Z,6.7
2019-02-05T12:55:56.569Z,6.8
2019-02-05T12:56:57.242Z,6.8
2019-02-05T12:57:57.916Z,6.8
2019-02-05T12:58:58.596Z,6.7
2019-02-05T12:59:59.270Z,6.7
2019-02-05T13:01:01.385Z,6.7
2019-02-05T13:02:01.613Z,6.6
2019-02-05T13:03:02.288Z,6.6
2019-02-05T13:04:02.963Z,6.6
2019-02-05T13:05:03.637Z,6.6
2019-02-05T13:06:04.313Z,6.6
2019-02-05T13:07:04.986Z,6.6
2019-02-05T13:08:05.762Z,6.6
2019-02-05T13:09:06.446Z,6.6
2019-02-05T13:10:07.127Z,6.6
2019-02-05T13:11:08.090Z,6.7
2019-02-05T13:12:08.766Z,6.7
2019-02-05T13:13:09.443Z,6.7
2019-02-05T13:14:10.117Z,6.7
2019-02-05T13:15:10.792Z,6.6
2019-02-05T13:16:11.467Z,6.7
2019-02-05T13:17:12.142Z,6.6
2019-02-05T13:18:12.876Z,6.7
2019-02-05T13:19:13.813Z,6.7
2019-02-05T13:20:14.490Z,6.7
2019-02-05T13:21:15.165Z,6.7
2019-02-05T13:22:15.875Z,6.7
2019-02-05T13:23:16.514Z,6.8
2019-02-05T13:24:17.189Z,6.7
2019-02-05T13:25:17.867Z,6.7
2019-02-05T13:26:18.539Z,6.8
2019-02-05T13:27:19.212Z,6.8
2019-02-05T13:28:20.145Z,6.8
2019-02-05T13:29:20.820Z,6.8
2019-02-05T13:30:21.494Z,6.8
2019-02-05T13:31:22.170Z,6.9
2019-02-05T13:32:22.847Z,6.9
2019-02-05T13:33:23.522Z,6.9
2019-02-05T13:34:24.196Z,6.9
2019-02-05T13:35:24.870Z,7.0
2019-02-05T13:36:25.812Z,7.0
2019-02-05T13:37:26.452Z,7.0
2019-02-05T13:38:27.126Z,7.0
2019-02-05T13:39:27.802Z,7.0
2019-02-05T13:40:28.497Z,6.9
2019-02-05T13:41:29.345Z,7.0
2019-02-05T13:42:29.871Z,7.0
2019-02-05T13:43:30.548Z,7.0
2019-02-05T13:44:31.272Z,7.1
2019-02-05T13:45:32.188Z,7.1
2019-02-05T13:46:32.858Z,7.0
2019-02-05T13:47:33.532Z,6.9
2019-02-05T13:48:34.207Z,7.0
2019-02-05T13:49:34.883Z,6.9
2019-02-05T13:50:35.559Z,6.9
2019-02-05T13:51:36.235Z,6.9
2019-02-05T13:52:36.910Z,6.9
2019-02-05T13:53:37.810Z,6.9
2019-02-05T13:54:38.486Z,7.0
2019-02-05T13:55:39.159Z,7.1
2019-02-05T13:56:39.834Z,7.0